Abilene/Dyess AFB, Texas
Current Conditions -  °F | °C
As of 5:58 AM on Monday 20 Oct 2014 (Local Time) from KDYS Reporting Station
Clear Clear  
Wind Chill: 60°   Ceiling: Unl
Heat Index: 60°   Visibility: 10mi
Dew Point: 58°   Wind: 3mph
Humidity: 91%   Direction: 150°SSE
Pressure: 30.05"   Gusts: NA
Location:  32.43°N, 99.83°W
Report Text: KDYS 201058Z AUTO 15003KT 10SM CLR 16/14 A3005 RMK AO2 SLP143 T01580143
Loading
Personal Weather Stations






























Interactive Weather Map
Tropical Storm Tracking
New forecast layout! Learn more

10-Day Weather Forecast

Advertisements
Track Severe Weather on mobile